Nearby METAR Reports

 

KCPC - Whiteville, North Carolina, USA
Distance from station: NNE 17mi, 28km
Updated: 10/06/2022 3:35am
Clear
Clear
 Wind from calm
Wind: Calm
Temperature: 52°F , 11°C
Dew Point: 50°F , 10°C
Humidity: 94%
Barometer: 30.04 inHg , 1017.3 hPa
Clouds: Clear
Visibility: 10 miles , 16 km
2022/10/06 07:35 KCPC 060735Z AUTO 00000KT 10SM CLR 11/10 A3004 RMK AO2 T01110103
KCRE - North Myrtle Bea, South Carolina, USA
Distance from station: SSE 19mi, 31km
Updated: 10/06/2022 2:53am
Clear
Clear
 Wind from calm
Wind: Calm
Temperature: 52°F , 11°C
Dew Point: 52°F , 11°C
Humidity: 100%
Barometer: 30.03 inHg , 1016.9 hPa
Clouds: Clear
Visibility: 10 miles , 16 km
2022/10/06 06:53 KCRE 060653Z AUTO 00000KT 10SM CLR 11/11 A3003 RMK AO1 SLP169 T01110111
 
KHYW - Conway-Horry Cty, South Carolina, USA
Distance from station: SW 22mi, 35km
Updated: 10/06/2022 3:35am
Clear
Clear
 Wind from calm
Wind: Calm
Temperature: 50°F , 10°C
Dew Point: 50°F , 10°C
Humidity: 100%
Barometer: 30.04 inHg , 1017.3 hPa
Clouds: Clear
Visibility: 10 miles , 16 km
2022/10/06 07:35 KHYW 060735Z AUTO 00000KT 10SM CLR 10/10 A3004 RMK AO2
KMAO - Marion, South Carolina, USA
Distance from station: WNW 28mi, 45km
Updated: 10/06/2022 3:35am
Clear
Clear
 Wind from calm
Wind: Calm
Temperature: 50°F , 10°C
Dew Point: 46°F , 8°C
Humidity: 88%
Barometer: 30.04 inHg , 1017.3 hPa
Clouds: Clear
Visibility: 10 miles , 16 km
2022/10/06 07:35 KMAO 060735Z AUTO 00000KT 10SM CLR 10/08 A3004 RMK AO2
 
KMYR - Myrtle Beach, South Carolina, USA
Distance from station: S 28mi, 45km
Updated: 10/06/2022 2:56am
Clear
Clear
 Wind from calm
Wind: Calm
Temperature: 57°F , 14°C
Dew Point: 54°F , 12°C
Humidity: 88%
Barometer: 30.04 inHg , 1017.3 hPa
Clouds: Clear
Visibility: 10 miles , 16 km
2022/10/06 06:56 KMYR 060656Z AUTO 00000KT 10SM CLR 14/12 A3004 RMK AO2 SLP173 T01390122
KLBT - Lumberton, North Carolina, USA
Distance from station: NNW 39mi, 62km
Updated: 10/06/2022 2:56am
Clear
Clear
 Wind from calm
Wind: Calm
Temperature: 52°F , 11°C
Dew Point: 52°F , 11°C
Humidity: 100%
Barometer: 30.03 inHg , 1016.9 hPa
Clouds: Clear
Visibility: 10 miles , 16 km
2022/10/06 06:56 KLBT 060656Z AUTO 00000KT 10SM CLR 11/11 A3003 RMK AO2 SLP169 T01110106 TSNO
 
KSUT - Southport, North Carolina, USA
Distance from station: E 46mi, 74km
Updated: 10/06/2022 3:35am
Clear
Clear
 Wind from calm
Wind: Calm
Temperature: 54°F , 12°C
Dew Point: 50°F , 10°C
Humidity: 88%
Barometer: 30.04 inHg , 1017.3 hPa
Clouds: Clear
Visibility: 10 miles , 16 km
2022/10/06 07:35 KSUT 060735Z AUTO 00000KT 10SM CLR 12/10 A3004 RMK AO2 T01180101
KFLO - Florence, South Carolina, USA
Distance from station: W 50mi, 81km
Updated: 10/06/2022 2:53am
Clear
Clear
 Wind from calm
Wind: Calm
Temperature: 52°F , 11°C
Dew Point: 48°F , 9°C
Humidity: 88%
Barometer: 30.04 inHg , 1017.3 hPa
Clouds: Clear
Visibility: 10 miles , 16 km
2022/10/06 06:53 KFLO 060653Z AUTO 00000KT 10SM CLR 11/09 A3004 RMK AO2 SLP170 T01110094